sensor_id;sensor_type;location;lat;lon;timestamp;temperature;humidity
14140;DHT22;7150;53.514;9.988;2023-05-29T00:01:31;20.70;57.80
14140;DHT22;7150;53.514;9.988;2023-05-29T00:03:57;20.70;57.90
14140;DHT22;7150;53.514;9.988;2023-05-29T00:06:24;20.70;58.00
14140;DHT22;7150;53.514;9.988;2023-05-29T00:08:50;20.70;58.20
14140;DHT22;7150;53.514;9.988;2023-05-29T00:11:15;20.70;58.20
14140;DHT22;7150;53.514;9.988;2023-05-29T00:13:41;20.60;58.20
14140;DHT22;7150;53.514;9.988;2023-05-29T00:16:07;20.60;58.30
14140;DHT22;7150;53.514;9.988;2023-05-29T00:18:35;20.50;58.30
14140;DHT22;7150;53.514;9.988;2023-05-29T00:21:00;20.50;58.30
14140;DHT22;7150;53.514;9.988;2023-05-29T00:23:27;20.50;58.40
14140;DHT22;7150;53.514;9.988;2023-05-29T00:25:52;20.40;58.40
14140;DHT22;7150;53.514;9.988;2023-05-29T00:28:18;20.50;58.40
14140;DHT22;7150;53.514;9.988;2023-05-29T00:30:43;20.50;58.40
14140;DHT22;7150;53.514;9.988;2023-05-29T00:33:09;20.40;58.40
14140;DHT22;7150;53.514;9.988;2023-05-29T00:35:34;20.30;58.50
14140;DHT22;7150;53.514;9.988;2023-05-29T00:38:00;20.20;58.10
14140;DHT22;7150;53.514;9.988;2023-05-29T00:40:26;20.20;58.50
14140;DHT22;7150;53.514;9.988;2023-05-29T00:42:51;20.00;58.60
14140;DHT22;7150;53.514;9.988;2023-05-29T00:45:17;20.00;58.80
14140;DHT22;7150;53.514;9.988;2023-05-29T00:47:43;20.00;58.80
14140;DHT22;7150;53.514;9.988;2023-05-29T00:50:11;20.00;58.70
14140;DHT22;7150;53.514;9.988;2023-05-29T00:52:39;20.00;58.50
14140;DHT22;7150;53.514;9.988;2023-05-29T00:55:06;19.90;58.70
14140;DHT22;7150;53.514;9.988;2023-05-29T00:57:33;19.90;58.80
14140;DHT22;7150;53.514;9.988;2023-05-29T01:00:00;19.80;58.90
14140;DHT22;7150;53.514;9.988;2023-05-29T01:02:29;19.80;58.90
14140;DHT22;7150;53.514;9.988;2023-05-29T01:04:56;19.80;58.80
14140;DHT22;7150;53.514;9.988;2023-05-29T01:07:22;19.80;58.90
14140;DHT22;7150;53.514;9.988;2023-05-29T01:09:48;19.80;58.70
14140;DHT22;7150;53.514;9.988;2023-05-29T01:15:11;19.70;58.90
14140;DHT22;7150;53.514;9.988;2023-05-29T01:28:42;19.40;58.70
14140;DHT22;7150;53.514;9.988;2023-05-29T01:31:10;19.40;58.70
14140;DHT22;7150;53.514;9.988;2023-05-29T01:33:40;19.30;58.70
14140;DHT22;7150;53.514;9.988;2023-05-29T01:36:08;19.30;58.60
14140;DHT22;7150;53.514;9.988;2023-05-29T01:38:33;19.30;58.60
14140;DHT22;7150;53.514;9.988;2023-05-29T01:40:59;19.30;58.50
14140;DHT22;7150;53.514;9.988;2023-05-29T01:43:25;19.20;59.00
14140;DHT22;7150;53.514;9.988;2023-05-29T01:45:52;19.20;58.90
14140;DHT22;7150;53.514;9.988;2023-05-29T01:48:17;19.10;58.50
14140;DHT22;7150;53.514;9.988;2023-05-29T01:50:43;19.10;58.40
14140;DHT22;7150;53.514;9.988;2023-05-29T01:53:09;19.10;58.50
14140;DHT22;7150;53.514;9.988;2023-05-29T01:55:35;19.00;58.50
14140;DHT22;7150;53.514;9.988;2023-05-29T01:58:01;19.00;58.50
14140;DHT22;7150;53.514;9.988;2023-05-29T02:00:28;18.90;58.50
14140;DHT22;7150;53.514;9.988;2023-05-29T02:02:55;19.00;58.60
14140;DHT22;7150;53.514;9.988;2023-05-29T02:05:20;18.90;58.50
14140;DHT22;7150;53.514;9.988;2023-05-29T02:07:46;18.90;58.50
14140;DHT22;7150;53.514;9.988;2023-05-29T02:10:12;18.90;58.60
14140;DHT22;7150;53.514;9.988;2023-05-29T02:12:37;18.90;58.60
14140;DHT22;7150;53.514;9.988;2023-05-29T02:15:03;18.90;58.60
14140;DHT22;7150;53.514;9.988;2023-05-29T02:17:29;18.80;58.50
14140;DHT22;7150;53.514;9.988;2023-05-29T02:19:56;18.80;58.50
14140;DHT22;7150;53.514;9.988;2023-05-29T02:22:21;18.80;58.40
14140;DHT22;7150;53.514;9.988;2023-05-29T02:24:47;18.80;58.50
14140;DHT22;7150;53.514;9.988;2023-05-29T02:27:13;18.70;58.50
14140;DHT22;7150;53.514;9.988;2023-05-29T02:29:38;18.70;58.50
14140;DHT22;7150;53.514;9.988;2023-05-29T02:32:04;18.70;58.50
14140;DHT22;7150;53.514;9.988;2023-05-29T02:34:30;18.70;58.30
14140;DHT22;7150;53.514;9.988;2023-05-29T02:36:55;18.60;58.50
14140;DHT22;7150;53.514;9.988;2023-05-29T02:39:21;18.60;58.50
14140;DHT22;7150;53.514;9.988;2023-05-29T02:41:47;18.50;58.60
14140;DHT22;7150;53.514;9.988;2023-05-29T02:44:13;18.50;58.70
14140;DHT22;7150;53.514;9.988;2023-05-29T02:46:38;18.50;58.80
14140;DHT22;7150;53.514;9.988;2023-05-29T02:49:04;18.50;58.60
14140;DHT22;7150;53.514;9.988;2023-05-29T02:51:30;18.40;58.80
14140;DHT22;7150;53.514;9.988;2023-05-29T02:53:57;18.40;58.80
14140;DHT22;7150;53.514;9.988;2023-05-29T02:56:23;18.30;58.80
14140;DHT22;7150;53.514;9.988;2023-05-29T02:58:49;18.30;58.90
14140;DHT22;7150;53.514;9.988;2023-05-29T03:01:15;18.30;58.80
14140;DHT22;7150;53.514;9.988;2023-05-29T03:03:41;18.30;58.90
14140;DHT22;7150;53.514;9.988;2023-05-29T03:06:06;18.30;59.10
14140;DHT22;7150;53.514;9.988;2023-05-29T03:08:31;18.30;59.20
14140;DHT22;7150;53.514;9.988;2023-05-29T03:10:58;18.20;58.90
14140;DHT22;7150;53.514;9.988;2023-05-29T03:13:24;18.20;59.00
14140;DHT22;7150;53.514;9.988;2023-05-29T03:15:49;18.20;59.10
14140;DHT22;7150;53.514;9.988;2023-05-29T03:18:16;18.20;58.90
14140;DHT22;7150;53.514;9.988;2023-05-29T03:20:42;18.20;59.10
14140;DHT22;7150;53.514;9.988;2023-05-29T03:23:07;18.10;59.10
14140;DHT22;7150;53.514;9.988;2023-05-29T03:25:32;18.10;59.10
14140;DHT22;7150;53.514;9.988;2023-05-29T03:27:58;18.10;59.20
14140;DHT22;7150;53.514;9.988;2023-05-29T03:30:23;18.00;59.20
14140;DHT22;7150;53.514;9.988;2023-05-29T03:32:49;18.10;59.20
14140;DHT22;7150;53.514;9.988;2023-05-29T03:35:15;18.00;59.20
14140;DHT22;7150;53.514;9.988;2023-05-29T03:37:40;18.00;59.30
14140;DHT22;7150;53.514;9.988;2023-05-29T03:40:06;18.00;59.60
14140;DHT22;7150;53.514;9.988;2023-05-29T03:42:32;18.00;59.30
14140;DHT22;7150;53.514;9.988;2023-05-29T03:44:58;18.00;59.20
14140;DHT22;7150;53.514;9.988;2023-05-29T03:47:23;18.00;59.30
14140;DHT22;7150;53.514;9.988;2023-05-29T03:49:48;18.00;59.30
14140;DHT22;7150;53.514;9.988;2023-05-29T03:52:14;18.00;59.10
14140;DHT22;7150;53.514;9.988;2023-05-29T03:54:40;18.00;59.20
14140;DHT22;7150;53.514;9.988;2023-05-29T03:57:05;17.90;59.30
14140;DHT22;7150;53.514;9.988;2023-05-29T03:59:32;17.90;59.50
14140;DHT22;7150;53.514;9.988;2023-05-29T04:01:57;17.90;59.60
14140;DHT22;7150;53.514;9.988;2023-05-29T04:04:23;17.80;59.60
14140;DHT22;7150;53.514;9.988;2023-05-29T04:06:49;17.90;59.70
14140;DHT22;7150;53.514;9.988;2023-05-29T04:09:14;17.90;59.60
14140;DHT22;7150;53.514;9.988;2023-05-29T04:11:40;17.90;59.70
14140;DHT22;7150;53.514;9.988;2023-05-29T04:14:07;17.90;59.70
14140;DHT22;7150;53.514;9.988;2023-05-29T04:16:32;17.90;59.80
14140;DHT22;7150;53.514;9.988;2023-05-29T04:18:58;17.90;59.70
14140;DHT22;7150;53.514;9.988;2023-05-29T04:21:23;17.90;59.70
14140;DHT22;7150;53.514;9.988;2023-05-29T04:23:49;17.90;59.80
14140;DHT22;7150;53.514;9.988;2023-05-29T04:26:14;17.90;59.80
14140;DHT22;7150;53.514;9.988;2023-05-29T04:28:40;17.80;59.90
14140;DHT22;7150;53.514;9.988;2023-05-29T04:31:07;17.80;59.90
14140;DHT22;7150;53.514;9.988;2023-05-29T04:33:33;17.70;59.90
14140;DHT22;7150;53.514;9.988;2023-05-29T04:36:02;17.80;59.90
14140;DHT22;7150;53.514;9.988;2023-05-29T04:38:29;17.80;59.60
14140;DHT22;7150;53.514;9.988;2023-05-29T04:40:56;17.80;59.80
14140;DHT22;7150;53.514;9.988;2023-05-29T04:43:24;17.70;59.70
14140;DHT22;7150;53.514;9.988;2023-05-29T04:45:54;17.70;59.80
14140;DHT22;7150;53.514;9.988;2023-05-29T04:48:20;17.70;59.80
14140;DHT22;7150;53.514;9.988;2023-05-29T04:50:45;17.70;59.90
14140;DHT22;7150;53.514;9.988;2023-05-29T04:53:11;17.80;60.00
14140;DHT22;7150;53.514;9.988;2023-05-29T04:55:37;17.80;59.90
14140;DHT22;7150;53.514;9.988;2023-05-29T04:58:02;17.80;60.00
14140;DHT22;7150;53.514;9.988;2023-05-29T05:00:28;17.90;60.10
14140;DHT22;7150;53.514;9.988;2023-05-29T05:02:53;17.90;60.00
14140;DHT22;7150;53.514;9.988;2023-05-29T05:05:19;18.00;59.90
14140;DHT22;7150;53.514;9.988;2023-05-29T05:07:45;17.90;59.70
14140;DHT22;7150;53.514;9.988;2023-05-29T05:10:11;18.00;59.70
14140;DHT22;7150;53.514;9.988;2023-05-29T05:12:36;18.00;59.60
14140;DHT22;7150;53.514;9.988;2023-05-29T05:15:02;18.00;59.60
14140;DHT22;7150;53.514;9.988;2023-05-29T05:17:28;18.10;59.50
14140;DHT22;7150;53.514;9.988;2023-05-29T05:19:54;18.00;59.40
14140;DHT22;7150;53.514;9.988;2023-05-29T05:22:20;18.00;59.40
14140;DHT22;7150;53.514;9.988;2023-05-29T05:24:45;18.00;59.50
14140;DHT22;7150;53.514;9.988;2023-05-29T05:27:11;18.00;59.60
14140;DHT22;7150;53.514;9.988;2023-05-29T05:29:36;18.00;59.70
14140;DHT22;7150;53.514;9.988;2023-05-29T05:32:02;18.00;59.70
14140;DHT22;7150;53.514;9.988;2023-05-29T05:34:27;18.00;59.70
14140;DHT22;7150;53.514;9.988;2023-05-29T05:36:53;18.10;59.80
14140;DHT22;7150;53.514;9.988;2023-05-29T05:39:19;18.10;59.80
14140;DHT22;7150;53.514;9.988;2023-05-29T05:41:44;18.10;59.80
14140;DHT22;7150;53.514;9.988;2023-05-29T05:44:10;18.10;59.70
14140;DHT22;7150;53.514;9.988;2023-05-29T05:46:35;18.20;59.70
14140;DHT22;7150;53.514;9.988;2023-05-29T05:49:01;18.20;59.50
14140;DHT22;7150;53.514;9.988;2023-05-29T05:51:27;18.30;59.60
14140;DHT22;7150;53.514;9.988;2023-05-29T05:53:53;18.30;59.50
14140;DHT22;7150;53.514;9.988;2023-05-29T05:56:18;18.30;59.40
14140;DHT22;7150;53.514;9.988;2023-05-29T05:58:44;18.30;59.20
14140;DHT22;7150;53.514;9.988;2023-05-29T06:01:10;18.30;58.90
14140;DHT22;7150;53.514;9.988;2023-05-29T06:03:35;18.40;58.90
14140;DHT22;7150;53.514;9.988;2023-05-29T06:06:03;18.30;58.80
14140;DHT22;7150;53.514;9.988;2023-05-29T06:08:29;18.30;59.10
14140;DHT22;7150;53.514;9.988;2023-05-29T06:10:55;18.30;58.90
14140;DHT22;7150;53.514;9.988;2023-05-29T06:13:20;18.30;58.90
14140;DHT22;7150;53.514;9.988;2023-05-29T06:15:46;18.40;58.80
14140;DHT22;7150;53.514;9.988;2023-05-29T06:18:11;18.30;58.80
14140;DHT22;7150;53.514;9.988;2023-05-29T06:20:37;18.30;58.90
14140;DHT22;7150;53.514;9.988;2023-05-29T06:23:02;18.30;59.00
14140;DHT22;7150;53.514;9.988;2023-05-29T06:25:28;18.40;58.70
14140;DHT22;7150;53.514;9.988;2023-05-29T06:28:02;18.40;58.70
14140;DHT22;7150;53.514;9.988;2023-05-29T06:30:28;18.40;58.70
14140;DHT22;7150;53.514;9.988;2023-05-29T06:32:54;18.40;58.60
14140;DHT22;7150;53.514;9.988;2023-05-29T06:35:19;18.40;58.60
14140;DHT22;7150;53.514;9.988;2023-05-29T06:37:45;18.50;58.60
14140;DHT22;7150;53.514;9.988;2023-05-29T06:40:12;18.50;58.50
14140;DHT22;7150;53.514;9.988;2023-05-29T06:42:38;18.50;58.50
14140;DHT22;7150;53.514;9.988;2023-05-29T06:45:03;18.60;58.00
14140;DHT22;7150;53.514;9.988;2023-05-29T06:47:29;18.60;57.70
14140;DHT22;7150;53.514;9.988;2023-05-29T06:49:54;18.60;57.90
14140;DHT22;7150;53.514;9.988;2023-05-29T06:52:20;18.50;58.10
14140;DHT22;7150;53.514;9.988;2023-05-29T06:54:45;18.50;58.30
14140;DHT22;7150;53.514;9.988;2023-05-29T06:57:11;18.50;57.90
14140;DHT22;7150;53.514;9.988;2023-05-29T06:59:37;18.60;57.90
14140;DHT22;7150;53.514;9.988;2023-05-29T07:02:03;18.60;57.60
14140;DHT22;7150;53.514;9.988;2023-05-29T07:04:28;18.60;57.80
14140;DHT22;7150;53.514;9.988;2023-05-29T07:06:54;18.60;57.80
14140;DHT22;7150;53.514;9.988;2023-05-29T07:09:19;18.60;57.90
14140;DHT22;7150;53.514;9.988;2023-05-29T07:11:45;18.70;57.60
14140;DHT22;7150;53.514;9.988;2023-05-29T07:14:10;18.60;57.80
14140;DHT22;7150;53.514;9.988;2023-05-29T07:16:36;18.70;58.00
14140;DHT22;7150;53.514;9.988;2023-05-29T07:19:01;18.70;58.00
14140;DHT22;7150;53.514;9.988;2023-05-29T07:21:27;18.70;57.80
14140;DHT22;7150;53.514;9.988;2023-05-29T07:23:54;18.80;57.70
14140;DHT22;7150;53.514;9.988;2023-05-29T07:26:19;18.80;57.80
14140;DHT22;7150;53.514;9.988;2023-05-29T07:28:48;18.70;57.70
14140;DHT22;7150;53.514;9.988;2023-05-29T07:31:13;18.70;57.60
14140;DHT22;7150;53.514;9.988;2023-05-29T07:33:40;18.80;57.50
14140;DHT22;7150;53.514;9.988;2023-05-29T07:36:06;18.70;57.50
14140;DHT22;7150;53.514;9.988;2023-05-29T07:38:32;18.70;57.70
14140;DHT22;7150;53.514;9.988;2023-05-29T07:40:58;18.80;57.80
14140;DHT22;7150;53.514;9.988;2023-05-29T07:43:23;18.80;57.90
14140;DHT22;7150;53.514;9.988;2023-05-29T07:45:49;18.70;57.20
14140;DHT22;7150;53.514;9.988;2023-05-29T07:48:14;18.60;57.60
14140;DHT22;7150;53.514;9.988;2023-05-29T07:50:40;18.60;57.80
14140;DHT22;7150;53.514;9.988;2023-05-29T07:53:06;18.70;58.10
14140;DHT22;7150;53.514;9.988;2023-05-29T07:55:33;18.80;58.00
14140;DHT22;7150;53.514;9.988;2023-05-29T07:57:59;18.80;58.20
14140;DHT22;7150;53.514;9.988;2023-05-29T08:00:25;18.80;58.20
14140;DHT22;7150;53.514;9.988;2023-05-29T08:02:51;18.90;58.30
14140;DHT22;7150;53.514;9.988;2023-05-29T08:05:17;18.90;58.70
14140;DHT22;7150;53.514;9.988;2023-05-29T08:07:43;19.10;57.60
14140;DHT22;7150;53.514;9.988;2023-05-29T08:10:09;19.00;57.80
14140;DHT22;7150;53.514;9.988;2023-05-29T08:12:35;18.90;57.90
14140;DHT22;7150;53.514;9.988;2023-05-29T08:15:01;19.10;58.20
14140;DHT22;7150;53.514;9.988;2023-05-29T08:17:27;19.10;58.20
14140;DHT22;7150;53.514;9.988;2023-05-29T08:19:53;19.10;57.90
14140;DHT22;7150;53.514;9.988;2023-05-29T08:22:18;19.00;57.70
14140;DHT22;7150;53.514;9.988;2023-05-29T08:24:44;19.00;57.80
14140;DHT22;7150;53.514;9.988;2023-05-29T08:27:10;19.10;57.80
14140;DHT22;7150;53.514;9.988;2023-05-29T08:29:35;19.10;57.90
14140;DHT22;7150;53.514;9.988;2023-05-29T08:32:02;19.20;58.10
14140;DHT22;7150;53.514;9.988;2023-05-29T08:34:27;19.20;57.50
14140;DHT22;7150;53.514;9.988;2023-05-29T08:36:53;19.30;57.00
14140;DHT22;7150;53.514;9.988;2023-05-29T08:39:20;19.30;56.70
14140;DHT22;7150;53.514;9.988;2023-05-29T08:44:14;19.30;56.70
14140;DHT22;7150;53.514;9.988;2023-05-29T08:46:43;19.30;56.80
14140;DHT22;7150;53.514;9.988;2023-05-29T08:49:11;19.30;57.00
14140;DHT22;7150;53.514;9.988;2023-05-29T08:51:42;19.30;57.00
14140;DHT22;7150;53.514;9.988;2023-05-29T08:54:11;19.40;57.00
14140;DHT22;7150;53.514;9.988;2023-05-29T08:56:39;19.50;56.60
14140;DHT22;7150;53.514;9.988;2023-05-29T08:59:06;19.50;56.40
14140;DHT22;7150;53.514;9.988;2023-05-29T09:01:34;19.50;56.70
14140;DHT22;7150;53.514;9.988;2023-05-29T09:04:00;19.50;56.80
14140;DHT22;7150;53.514;9.988;2023-05-29T09:06:26;19.60;56.50
14140;DHT22;7150;53.514;9.988;2023-05-29T09:08:52;19.70;56.40
14140;DHT22;7150;53.514;9.988;2023-05-29T09:11:18;19.70;56.40
14140;DHT22;7150;53.514;9.988;2023-05-29T09:13:44;19.80;56.60
14140;DHT22;7150;53.514;9.988;2023-05-29T09:16:10;19.80;56.30
14140;DHT22;7150;53.514;9.988;2023-05-29T09:18:36;19.80;56.30
14140;DHT22;7150;53.514;9.988;2023-05-29T09:21:06;19.80;56.40
14140;DHT22;7150;53.514;9.988;2023-05-29T09:23:36;19.90;56.50
14140;DHT22;7150;53.514;9.988;2023-05-29T09:26:02;20.00;56.40
14140;DHT22;7150;53.514;9.988;2023-05-29T09:28:30;20.00;56.00
14140;DHT22;7150;53.514;9.988;2023-05-29T09:30:56;20.00;55.90
14140;DHT22;7150;53.514;9.988;2023-05-29T09:33:22;20.00;56.10
14140;DHT22;7150;53.514;9.988;2023-05-29T09:35:49;20.10;56.00
14140;DHT22;7150;53.514;9.988;2023-05-29T09:38:19;20.10;56.00
14140;DHT22;7150;53.514;9.988;2023-05-29T09:40:45;20.10;55.50
14140;DHT22;7150;53.514;9.988;2023-05-29T09:43:13;20.10;55.50
14140;DHT22;7150;53.514;9.988;2023-05-29T09:45:40;20.10;55.70
14140;DHT22;7150;53.514;9.988;2023-05-29T09:48:07;20.10;55.80
14140;DHT22;7150;53.514;9.988;2023-05-29T09:50:34;20.30;55.70
14140;DHT22;7150;53.514;9.988;2023-05-29T09:53:00;20.20;56.40
14140;DHT22;7150;53.514;9.988;2023-05-29T09:55:27;20.30;55.40
14140;DHT22;7150;53.514;9.988;2023-05-29T09:57:54;20.30;55.40
14140;DHT22;7150;53.514;9.988;2023-05-29T10:00:20;20.30;55.70
14140;DHT22;7150;53.514;9.988;2023-05-29T10:02:48;20.30;55.40
14140;DHT22;7150;53.514;9.988;2023-05-29T10:05:13;20.30;55.20
14140;DHT22;7150;53.514;9.988;2023-05-29T10:07:43;20.40;55.30
14140;DHT22;7150;53.514;9.988;2023-05-29T10:10:11;20.50;54.90
14140;DHT22;7150;53.514;9.988;2023-05-29T10:12:38;20.50;54.70
14140;DHT22;7150;53.514;9.988;2023-05-29T10:15:10;20.50;54.80
14140;DHT22;7150;53.514;9.988;2023-05-29T10:17:38;20.60;55.00
14140;DHT22;7150;53.514;9.988;2023-05-29T10:20:05;20.80;55.10
14140;DHT22;7150;53.514;9.988;2023-05-29T10:22:32;20.70;55.10
14140;DHT22;7150;53.514;9.988;2023-05-29T10:24:59;20.90;53.50
14140;DHT22;7150;53.514;9.988;2023-05-29T10:27:26;20.80;53.50
14140;DHT22;7150;53.514;9.988;2023-05-29T10:30:16;20.80;53.50
14140;DHT22;7150;53.514;9.988;2023-05-29T10:33:09;20.90;53.50
14140;DHT22;7150;53.514;9.988;2023-05-29T10:35:44;20.90;53.40
14140;DHT22;7150;53.514;9.988;2023-05-29T10:38:16;20.90;52.80
14140;DHT22;7150;53.514;9.988;2023-05-29T10:40:45;20.90;53.10
14140;DHT22;7150;53.514;9.988;2023-05-29T10:43:33;21.00;52.80
14140;DHT22;7150;53.514;9.988;2023-05-29T10:45:59;21.00;52.90
14140;DHT22;7150;53.514;9.988;2023-05-29T10:50:55;21.00;53.20
14140;DHT22;7150;53.514;9.988;2023-05-29T10:53:26;21.00;52.90
14140;DHT22;7150;53.514;9.988;2023-05-29T10:55:53;21.00;52.90
14140;DHT22;7150;53.514;9.988;2023-05-29T10:58:20;21.10;52.60
14140;DHT22;7150;53.514;9.988;2023-05-29T11:00:48;21.10;52.30
14140;DHT22;7150;53.514;9.988;2023-05-29T11:03:23;21.10;52.70
14140;DHT22;7150;53.514;9.988;2023-05-29T11:08:33;21.20;53.40
14140;DHT22;7150;53.514;9.988;2023-05-29T11:11:01;21.10;53.30
14140;DHT22;7150;53.514;9.988;2023-05-29T11:13:36;21.20;52.40
14140;DHT22;7150;53.514;9.988;2023-05-29T11:16:20;21.20;52.60
14140;DHT22;7150;53.514;9.988;2023-05-29T11:19:04;21.30;52.80
14140;DHT22;7150;53.514;9.988;2023-05-29T11:21:46;21.30;52.70
14140;DHT22;7150;53.514;9.988;2023-05-29T11:24:28;21.50;52.30
14140;DHT22;7150;53.514;9.988;2023-05-29T11:26:56;21.50;51.80
14140;DHT22;7150;53.514;9.988;2023-05-29T11:29:28;21.50;51.40
14140;DHT22;7150;53.514;9.988;2023-05-29T11:32:06;21.60;51.80
14140;DHT22;7150;53.514;9.988;2023-05-29T11:34:40;21.70;51.60
14140;DHT22;7150;53.514;9.988;2023-05-29T11:37:06;21.70;51.50
14140;DHT22;7150;53.514;9.988;2023-05-29T11:39:36;21.80;51.40
14140;DHT22;7150;53.514;9.988;2023-05-29T11:42:02;22.00;51.10
14140;DHT22;7150;53.514;9.988;2023-05-29T11:44:28;22.10;51.10
14140;DHT22;7150;53.514;9.988;2023-05-29T11:47:19;22.20;51.10
14140;DHT22;7150;53.514;9.988;2023-05-29T11:49:48;22.40;51.00
14140;DHT22;7150;53.514;9.988;2023-05-29T11:52:14;22.60;51.10
14140;DHT22;7150;53.514;9.988;2023-05-29T11:54:40;22.80;51.10
14140;DHT22;7150;53.514;9.988;2023-05-29T11:57:18;23.10;50.70
14140;DHT22;7150;53.514;9.988;2023-05-29T11:59:44;23.60;50.10
14140;DHT22;7150;53.514;9.988;2023-05-29T12:02:09;24.00;49.60
14140;DHT22;7150;53.514;9.988;2023-05-29T12:04:36;24.50;49.20
14140;DHT22;7150;53.514;9.988;2023-05-29T12:07:08;24.90;48.40
14140;DHT22;7150;53.514;9.988;2023-05-29T12:09:41;25.10;47.50
14140;DHT22;7150;53.514;9.988;2023-05-29T12:12:07;25.60;46.90
14140;DHT22;7150;53.514;9.988;2023-05-29T12:14:33;26.40;46.70
14140;DHT22;7150;53.514;9.988;2023-05-29T12:16:58;26.80;45.70
14140;DHT22;7150;53.514;9.988;2023-05-29T12:19:24;26.80;45.60
14140;DHT22;7150;53.514;9.988;2023-05-29T12:21:50;26.60;43.60
14140;DHT22;7150;53.514;9.988;2023-05-29T12:24:18;26.20;43.30
14140;DHT22;7150;53.514;9.988;2023-05-29T12:26:44;26.00;44.80
14140;DHT22;7150;53.514;9.988;2023-05-29T12:29:09;25.70;43.40
14140;DHT22;7150;53.514;9.988;2023-05-29T12:31:35;25.60;42.60
14140;DHT22;7150;53.514;9.988;2023-05-29T12:34:10;25.70;42.40
14140;DHT22;7150;53.514;9.988;2023-05-29T12:36:40;25.60;43.30
14140;DHT22;7150;53.514;9.988;2023-05-29T12:39:07;25.70;44.30
14140;DHT22;7150;53.514;9.988;2023-05-29T12:41:34;25.80;44.80
14140;DHT22;7150;53.514;9.988;2023-05-29T12:44:04;25.70;44.60
14140;DHT22;7150;53.514;9.988;2023-05-29T12:46:38;25.50;44.50
14140;DHT22;7150;53.514;9.988;2023-05-29T12:49:17;25.30;44.20
14140;DHT22;7150;53.514;9.988;2023-05-29T12:51:46;25.00;44.90
14140;DHT22;7150;53.514;9.988;2023-05-29T12:54:13;24.90;45.30
14140;DHT22;7150;53.514;9.988;2023-05-29T12:56:39;24.70;45.90
14140;DHT22;7150;53.514;9.988;2023-05-29T12:59:06;24.60;46.00
14140;DHT22;7150;53.514;9.988;2023-05-29T13:01:32;24.60;46.00
14140;DHT22;7150;53.514;9.988;2023-05-29T13:03:58;24.60;45.60
14140;DHT22;7150;53.514;9.988;2023-05-29T13:06:23;24.60;45.60
14140;DHT22;7150;53.514;9.988;2023-05-29T13:08:49;24.50;44.70
14140;DHT22;7150;53.514;9.988;2023-05-29T13:11:15;24.40;45.70
14140;DHT22;7150;53.514;9.988;2023-05-29T13:13:40;24.40;46.30
14140;DHT22;7150;53.514;9.988;2023-05-29T13:16:06;24.40;45.80
14140;DHT22;7150;53.514;9.988;2023-05-29T13:18:31;24.40;45.40
14140;DHT22;7150;53.514;9.988;2023-05-29T13:20:58;24.50;46.00
14140;DHT22;7150;53.514;9.988;2023-05-29T13:23:24;24.50;44.50
14140;DHT22;7150;53.514;9.988;2023-05-29T13:25:49;24.50;44.80
14140;DHT22;7150;53.514;9.988;2023-05-29T13:28:15;24.50;45.70
14140;DHT22;7150;53.514;9.988;2023-05-29T13:30:41;24.40;45.70
14140;DHT22;7150;53.514;9.988;2023-05-29T13:33:06;24.40;45.40
14140;DHT22;7150;53.514;9.988;2023-05-29T13:35:32;24.50;45.30
14140;DHT22;7150;53.514;9.988;2023-05-29T13:37:57;24.40;43.60
14140;DHT22;7150;53.514;9.988;2023-05-29T13:40:22;24.40;42.30
14140;DHT22;7150;53.514;9.988;2023-05-29T13:42:48;24.30;42.70
14140;DHT22;7150;53.514;9.988;2023-05-29T13:45:13;24.40;43.30
14140;DHT22;7150;53.514;9.988;2023-05-29T13:47:39;24.50;43.70
14140;DHT22;7150;53.514;9.988;2023-05-29T13:50:05;24.50;42.20
14140;DHT22;7150;53.514;9.988;2023-05-29T13:52:32;24.50;43.20
14140;DHT22;7150;53.514;9.988;2023-05-29T13:54:57;24.50;44.20
14140;DHT22;7150;53.514;9.988;2023-05-29T13:57:25;24.60;44.60
14140;DHT22;7150;53.514;9.988;2023-05-29T13:59:51;24.70;45.00
14140;DHT22;7150;53.514;9.988;2023-05-29T14:02:16;24.70;45.30
14140;DHT22;7150;53.514;9.988;2023-05-29T14:04:42;24.70;45.70
14140;DHT22;7150;53.514;9.988;2023-05-29T14:07:08;24.80;47.10
14140;DHT22;7150;53.514;9.988;2023-05-29T14:09:34;25.00;47.30
14140;DHT22;7150;53.514;9.988;2023-05-29T14:12:00;25.30;47.60
14140;DHT22;7150;53.514;9.988;2023-05-29T14:14:26;25.70;47.40
14140;DHT22;7150;53.514;9.988;2023-05-29T14:16:52;26.20;46.90
14140;DHT22;7150;53.514;9.988;2023-05-29T14:19:18;26.80;44.90
14140;DHT22;7150;53.514;9.988;2023-05-29T14:21:44;27.30;42.10
14140;DHT22;7150;53.514;9.988;2023-05-29T14:24:10;27.50;42.50
14140;DHT22;7150;53.514;9.988;2023-05-29T14:26:36;27.60;43.30
14140;DHT22;7150;53.514;9.988;2023-05-29T14:29:02;27.80;43.80
14140;DHT22;7150;53.514;9.988;2023-05-29T14:31:28;27.80;43.90
14140;DHT22;7150;53.514;9.988;2023-05-29T14:33:53;27.80;44.30
14140;DHT22;7150;53.514;9.988;2023-05-29T14:36:19;27.80;45.10
14140;DHT22;7150;53.514;9.988;2023-05-29T14:38:44;27.80;45.70
14140;DHT22;7150;53.514;9.988;2023-05-29T14:41:11;27.70;45.80
14140;DHT22;7150;53.514;9.988;2023-05-29T14:43:38;27.80;46.20
14140;DHT22;7150;53.514;9.988;2023-05-29T14:46:04;27.70;46.10
14140;DHT22;7150;53.514;9.988;2023-05-29T14:48:30;27.60;46.40
14140;DHT22;7150;53.514;9.988;2023-05-29T14:50:55;27.50;46.60
14140;DHT22;7150;53.514;9.988;2023-05-29T14:53:21;27.60;46.30
14140;DHT22;7150;53.514;9.988;2023-05-29T14:55:48;27.60;46.80
14140;DHT22;7150;53.514;9.988;2023-05-29T14:58:14;27.90;46.70
14140;DHT22;7150;53.514;9.988;2023-05-29T15:00:39;28.40;46.40
14140;DHT22;7150;53.514;9.988;2023-05-29T15:03:05;29.20;45.90
14140;DHT22;7150;53.514;9.988;2023-05-29T15:05:30;30.20;44.70
14140;DHT22;7150;53.514;9.988;2023-05-29T15:07:56;31.10;42.30
14140;DHT22;7150;53.514;9.988;2023-05-29T15:10:25;31.80;42.10
14140;DHT22;7150;53.514;9.988;2023-05-29T15:12:52;32.80;41.60
14140;DHT22;7150;53.514;9.988;2023-05-29T15:15:24;33.70;41.10
14140;DHT22;7150;53.514;9.988;2023-05-29T15:17:50;34.70;39.40
14140;DHT22;7150;53.514;9.988;2023-05-29T15:20:19;35.00;38.10
14140;DHT22;7150;53.514;9.988;2023-05-29T15:22:45;35.40;38.00
14140;DHT22;7150;53.514;9.988;2023-05-29T15:25:11;35.90;37.80
14140;DHT22;7150;53.514;9.988;2023-05-29T15:27:37;36.30;36.20
14140;DHT22;7150;53.514;9.988;2023-05-29T15:30:13;36.40;36.40
14140;DHT22;7150;53.514;9.988;2023-05-29T15:32:39;36.70;36.60
14140;DHT22;7150;53.514;9.988;2023-05-29T15:35:09;37.00;36.30
14140;DHT22;7150;53.514;9.988;2023-05-29T15:37:35;37.50;35.80
14140;DHT22;7150;53.514;9.988;2023-05-29T15:40:01;37.90;35.10
14140;DHT22;7150;53.514;9.988;2023-05-29T15:42:27;38.10;34.90
14140;DHT22;7150;53.514;9.988;2023-05-29T15:44:53;38.40;34.30
14140;DHT22;7150;53.514;9.988;2023-05-29T15:47:18;38.60;33.80
14140;DHT22;7150;53.514;9.988;2023-05-29T15:49:44;38.80;33.80
14140;DHT22;7150;53.514;9.988;2023-05-29T15:52:09;39.00;33.40
14140;DHT22;7150;53.514;9.988;2023-05-29T15:54:35;39.20;33.60
14140;DHT22;7150;53.514;9.988;2023-05-29T15:57:00;39.20;32.80
14140;DHT22;7150;53.514;9.988;2023-05-29T15:59:30;39.00;32.40
14140;DHT22;7150;53.514;9.988;2023-05-29T16:01:57;38.70;32.40
14140;DHT22;7150;53.514;9.988;2023-05-29T16:04:22;38.40;32.50